Time;durP1;ratioP1;P1;durP2;ratioP2;P2;SDS_P1;SDS_P2;PMS_P1;PMS_P2;Temp;Humidity;BMP_temperature;BMP_pressure;BME280_temperature;BME280_humidity;BME280_pressure;Samples;Min_cycle;Max_cycle;Signal;HPM_P1;HPM_P2
2022/08/25 00:00:09;;;;;;;6.18;5.57;;;;;;;22.23;71.53;101543.41;5033314;28;20399;-77
2022/08/25 00:02:34;;;;;;;6.45;5.45;;;;;;;22.19;71.58;101540.22;5036642;28;20037;-77
2022/08/25 00:04:59;;;;;;;6.97;5.30;;;;;;;22.17;71.94;101544.97;5024090;28;20052;-77
2022/08/25 00:07:24;;;;;;;7.70;5.65;;;;;;;22.11;71.85;101540.25;5038380;28;20623;-77
2022/08/25 00:09:50;;;;;;;5.80;5.20;;;;;;;22.06;72.41;101537.25;5037815;28;20021;-78
2022/08/25 00:12:15;;;;;;;8.07;4.57;;;;;;;22.06;71.91;101537.25;5037565;28;20314;-77
2022/08/25 00:14:42;;;;;;;7.28;5.57;;;;;;;22.02;72.18;101535.94;5048356;28;20302;-76
2022/08/25 00:17:08;;;;;;;6.25;5.45;;;;;;;21.99;72.08;101543.34;5036946;28;20022;-78
2022/08/25 00:19:36;;;;;;;6.88;6.07;;;;;;;21.97;72.22;101534.59;5036932;28;20035;-78
2022/08/25 00:22:05;;;;;;;5.95;5.45;;;;;;;21.88;72.42;101535.63;5035676;28;20021;-77
2022/08/25 00:24:30;;;;;;;6.28;5.50;;;;;;;21.84;73.21;101536.16;5036376;28;20376;-77
2022/08/25 00:27:00;;;;;;;7.60;6.70;;;;;;;21.75;73.38;101535.34;5035228;28;20025;-77
2022/08/25 00:29:27;;;;;;;9.10;6.22;;;;;;;21.74;72.91;101530.97;5023893;28;20076;-77
2022/08/25 00:31:53;;;;;;;5.70;5.20;;;;;;;21.66;73.54;101541.81;5035895;28;20460;-77
2022/08/25 00:34:24;;;;;;;8.90;5.85;;;;;;;21.64;73.50;101538.44;5032985;28;20384;-77
2022/08/25 00:36:52;;;;;;;6.82;5.82;;;;;;;21.60;73.88;101548.75;5027601;28;20055;-77
2022/08/25 00:39:19;;;;;;;6.53;5.95;;;;;;;21.57;73.63;101538.28;5034872;28;20033;-76
2022/08/25 00:41:47;;;;;;;6.45;5.85;;;;;;;21.47;74.45;101540.28;5036154;28;20438;-77
2022/08/25 00:44:16;;;;;;;7.35;5.85;;;;;;;21.46;74.66;101535.91;5036680;28;20032;-78
2022/08/25 00:46:46;;;;;;;8.40;5.55;;;;;;;21.46;74.20;101536.75;5035056;28;20384;-75
2022/08/25 00:49:21;;;;;;;7.65;5.82;;;;;;;21.43;74.21;101535.25;5036998;28;20091;-77
2022/08/25 00:52:04;;;;;;;6.75;5.25;;;;;;;21.43;73.71;101542.50;5084051;22;20653;-76
2022/08/25 00:54:34;;;;;;;6.32;5.72;;;;;;;21.32;74.66;101538.31;5048012;28;20041;-76
2022/08/25 00:57:03;;;;;;;6.30;5.63;;;;;;;21.31;74.77;101544.72;5054740;28;20476;-77
2022/08/25 00:59:29;;;;;;;9.88;6.10;;;;;;;21.32;74.72;101529.38;5054395;28;20576;-76
2022/08/25 01:01:55;;;;;;;8.07;6.10;;;;;;;21.27;74.25;101535.28;5055297;28;20048;-76
2022/08/25 01:04:23;;;;;;;8.35;5.93;;;;;;;21.26;74.48;101541.69;5056612;28;20033;-76
2022/08/25 01:06:48;;;;;;;6.55;5.88;;;;;;;21.24;75.00;101539.16;5055440;28;20040;-76
2022/08/25 01:09:14;;;;;;;7.35;6.32;;;;;;;21.24;74.57;101536.44;5051231;28;20034;-76
2022/08/25 01:11:43;;;;;;;9.13;6.43;;;;;;;21.17;74.88;101532.75;5052002;28;20021;-76
2022/08/25 01:14:10;;;;;;;7.93;6.25;;;;;;;21.19;74.15;101530.72;5056390;28;20028;-76
2022/08/25 01:16:37;;;;;;;7.85;6.32;;;;;;;21.14;74.78;101530.38;5054285;28;20025;-76
2022/08/25 01:19:04;;;;;;;6.93;6.22;;;;;;;21.17;74.98;101535.47;5058276;28;20024;-76
2022/08/25 01:21:36;;;;;;;7.53;6.50;;;;;;;21.15;74.48;101529.38;5061501;28;20037;-76
2022/08/25 01:24:03;;;;;;;7.75;6.45;;;;;;;21.10;75.24;101526.34;5050609;28;20033;-76
2022/08/25 01:26:31;;;;;;;8.30;7.30;;;;;;;21.10;74.62;101531.75;5057873;28;20029;-76
2022/08/25 01:31:44;;;;;;;9.82;7.13;;;;;;;21.06;73.99;101525.00;5059944;28;20067;-76
2022/08/25 01:34:11;;;;;;;9.77;6.97;;;;;;;21.00;75.16;101529.22;5059791;28;20124;-76
2022/08/25 01:36:37;;;;;;;8.48;7.68;;;;;;;20.97;74.88;101526.84;5054859;28;20083;-77
2022/08/25 01:39:04;;;;;;;8.80;7.15;;;;;;;20.96;75.21;101530.56;5062354;28;20019;-76
2022/08/25 01:41:35;;;;;;;8.07;7.28;;;;;;;20.93;74.84;101528.19;5060222;28;20052;-77
2022/08/25 01:44:07;;;;;;;7.93;7.22;;;;;;;20.93;74.78;101535.47;5060411;28;20040;-76
2022/08/25 01:46:33;;;;;;;8.32;7.35;;;;;;;20.94;74.37;101529.91;5059436;28;20025;-76
2022/08/25 01:49:00;;;;;;;9.43;7.40;;;;;;;20.88;74.84;101533.25;5060012;28;20038;-77
2022/08/25 01:51:28;;;;;;;8.65;7.75;;;;;;;20.86;74.70;101529.91;5048217;28;20029;-77
2022/08/25 01:53:54;;;;;;;11.85;7.45;;;;;;;20.87;74.22;101531.59;5061432;28;20044;-77
2022/08/25 01:56:19;;;;;;;8.27;7.47;;;;;;;20.81;74.41;101527.69;5061742;28;20108;-77
2022/08/25 01:58:50;;;;;;;9.88;7.60;;;;;;;20.80;73.94;101527.84;5052700;28;20043;-77
2022/08/25 02:01:19;;;;;;;9.68;7.25;;;;;;;20.79;74.17;101532.41;5059881;28;20083;-77
2022/08/25 02:03:49;;;;;;;9.93;7.10;;;;;;;20.65;74.26;101520.44;5060994;28;20051;-77
2022/08/25 02:06:20;;;;;;;9.75;6.78;;;;;;;20.69;74.16;101532.59;5060582;28;20024;-77
2022/08/25 02:08:54;;;;;;;9.63;7.40;;;;;;;20.73;73.94;101527.69;5052426;28;20058;-77
2022/08/25 02:11:20;;;;;;;8.25;7.05;;;;;;;20.69;74.13;101529.88;5056641;28;20014;-77
2022/08/25 02:13:46;;;;;;;9.07;6.80;;;;;;;20.65;73.37;101533.06;5052667;28;20460;-76
2022/08/25 02:16:19;;;;;;;10.27;7.38;;;;;;;20.62;74.00;101533.41;5051339;28;20028;-77
2022/08/25 02:18:46;;;;;;;8.88;7.00;;;;;;;20.60;73.94;101524.59;5060073;28;20025;-77
2022/08/25 02:21:11;;;;;;;9.82;7.32;;;;;;;20.52;73.89;101520.91;5060262;28;20029;-77
2022/08/25 02:23:37;;;;;;;9.57;6.63;;;;;;;20.55;73.69;101525.13;5058897;28;20027;-77
2022/08/25 02:26:03;;;;;;;8.23;7.43;;;;;;;20.53;74.66;101529.81;5053943;28;20096;-77
2022/08/25 02:28:28;;;;;;;8.27;6.93;;;;;;;20.45;74.52;101524.41;5053087;28;20045;-76
2022/08/25 02:30:54;;;;;;;7.85;6.78;;;;;;;20.47;73.92;101525.13;5058271;28;20040;-77
2022/08/25 02:33:19;;;;;;;9.07;7.47;;;;;;;20.44;74.56;101518.19;5060363;28;20393;-77
2022/08/25 02:35:45;;;;;;;9.18;6.82;;;;;;;20.42;73.75;101514.81;5060652;28;20025;-76
2022/08/25 02:38:10;;;;;;;8.82;7.10;;;;;;;20.41;73.62;101509.59;5058490;28;20385;-77
2022/08/25 02:40:36;;;;;;;10.50;7.63;;;;;;;20.36;74.71;101512.78;5046966;28;20021;-77
2022/08/25 02:43:01;;;;;;;9.10;6.72;;;;;;;20.38;73.94;101515.31;5054199;28;20085;-77
2022/08/25 02:45:27;;;;;;;10.52;7.10;;;;;;;20.31;73.39;101523.22;5044389;28;20021;-77
2022/08/25 02:47:55;;;;;;;9.73;6.97;;;;;;;20.29;74.04;101519.84;5055157;28;20025;-77
2022/08/25 02:50:21;;;;;;;9.67;6.43;;;;;;;20.27;73.33;101520.00;5057817;28;20032;-77
2022/08/25 02:52:49;;;;;;;10.02;7.00;;;;;;;20.22;74.20;101513.44;5057072;28;20086;-77
2022/08/25 02:55:16;;;;;;;7.80;6.65;;;;;;;20.21;74.63;101512.56;5049367;28;20045;-77
2022/08/25 02:57:42;;;;;;;8.38;6.78;;;;;;;20.24;74.04;101508.72;5056997;28;20032;-77
2022/08/25 03:00:11;;;;;;;10.05;7.10;;;;;;;20.14;74.47;101506.16;5058539;28;20037;-77
2022/08/25 03:02:36;;;;;;;8.50;6.88;;;;;;;20.15;74.02;101511.38;5058169;28;20017;-77
2022/08/25 03:05:03;;;;;;;9.02;6.55;;;;;;;20.13;73.87;101505.31;5055057;28;20025;-77
2022/08/25 03:07:29;;;;;;;9.60;7.30;;;;;;;20.05;74.32;101507.13;5057423;28;20017;-77
2022/08/25 03:09:55;;;;;;;10.77;7.20;;;;;;;20.00;74.37;101501.38;5056665;28;20083;-77
2022/08/25 03:12:21;;;;;;;9.38;7.32;;;;;;;20.04;73.52;101503.59;5056715;28;20029;-76
2022/08/25 03:14:47;;;;;;;7.93;7.05;;;;;;;19.99;72.97;101491.63;5056082;28;20061;-76
2022/08/25 03:17:12;;;;;;;8.50;7.25;;;;;;;19.95;73.30;101488.38;5066321;28;20032;-77
2022/08/25 03:19:37;;;;;;;8.90;6.60;;;;;;;19.93;73.74;101488.56;5064563;28;20476;-76
2022/08/25 03:22:03;;;;;;;8.32;6.53;;;;;;;19.91;74.06;101487.88;5062038;28;20056;-77
2022/08/25 03:24:28;;;;;;;8.05;6.38;;;;;;;19.90;72.58;101494.28;5061150;28;20040;-77
2022/08/25 03:26:54;;;;;;;10.02;6.78;;;;;;;19.86;73.58;101490.22;5058834;28;20108;-77
2022/08/25 03:29:25;;;;;;;7.65;6.82;;;;;;;19.84;73.01;101481.44;5058768;28;20048;-77
2022/08/25 03:31:53;;;;;;;8.55;6.20;;;;;;;19.85;72.29;101480.47;5060753;28;20059;-77
2022/08/25 03:34:20;;;;;;;7.07;6.20;;;;;;;19.79;73.36;101489.19;5049189;28;20012;-77
2022/08/25 03:36:50;;;;;;;8.55;6.50;;;;;;;19.78;72.82;101484.78;5055968;28;20033;-76
2022/08/25 03:39:17;;;;;;;8.45;6.57;;;;;;;19.76;72.48;101484.13;5056547;28;20025;-76
2022/08/25 03:41:43;;;;;;;9.95;6.82;;;;;;;19.71;72.62;101481.03;5054922;28;20039;-76
2022/08/25 03:44:09;;;;;;;7.60;6.00;;;;;;;19.69;71.88;101483.88;5057432;28;20025;-76
2022/08/25 03:46:40;;;;;;;12.65;6.32;;;;;;;19.68;72.51;101482.19;5056254;28;20101;-76
2022/08/25 03:49:08;;;;;;;8.30;6.38;;;;;;;19.56;72.30;101468.16;5057380;28;20032;-77
2022/08/25 03:51:39;;;;;;;8.50;6.07;;;;;;;19.62;72.10;101468.50;5057919;28;20503;-77
2022/08/25 03:54:05;;;;;;;8.73;6.20;;;;;;;19.57;72.28;101472.56;5058558;28;20052;-77
2022/08/25 03:56:30;;;;;;;10.93;6.20;;;;;;;19.57;72.24;101475.25;5045936;28;20048;-76
2022/08/25 03:58:56;;;;;;;11.50;6.70;;;;;;;19.51;72.39;101467.78;5055271;28;20502;-76
2022/08/25 04:01:22;;;;;;;7.72;5.65;;;;;;;19.48;72.69;101464.59;5058251;28;20055;-76
2022/08/25 04:03:48;;;;;;;9.50;6.50;;;;;;;19.45;72.51;101464.91;5057234;28;20074;-76
2022/08/25 04:06:15;;;;;;;9.18;6.40;;;;;;;19.42;72.66;101458.00;5057436;28;20071;-77
2022/08/25 04:08:41;;;;;;;11.65;6.43;;;;;;;19.43;72.41;101459.69;5057927;28;20032;-76
2022/08/25 04:11:19;;;;;;;9.43;6.15;;;;;;;19.42;71.70;101460.69;5058844;28;20399;-76
2022/08/25 04:13:48;;;;;;;12.50;6.50;;;;;;;19.42;70.22;101458.00;5045235;28;20506;-77
2022/08/25 04:16:17;;;;;;;10.82;6.18;;;;;;;19.39;70.04;101456.47;5056803;28;20025;-77
2022/08/25 04:18:44;;;;;;;9.02;6.47;;;;;;;19.41;69.11;101467.09;5039425;28;20027;-77
2022/08/25 04:21:11;;;;;;;11.02;6.78;;;;;;;19.41;67.87;101470.59;5053354;28;20025;-77
2022/08/25 04:23:40;;;;;;;8.45;6.53;;;;;;;19.42;67.27;101460.69;5059711;28;20333;-76
2022/08/25 04:26:18;;;;;;;12.18;7.28;;;;;;;19.42;67.01;101458.84;5056743;28;20029;-76
2022/08/25 04:28:45;;;;;;;7.35;6.60;;;;;;;19.42;66.59;101472.31;5057341;28;20025;-76
2022/08/25 04:31:13;;;;;;;8.43;6.20;;;;;;;19.45;66.73;101459.53;5056087;28;20411;-76
2022/08/25 04:33:40;;;;;;;10.50;6.60;;;;;;;19.44;66.43;101458.69;5053745;28;20025;-76
2022/08/25 04:36:08;;;;;;;10.27;6.63;;;;;;;19.45;65.10;101454.13;5055958;28;20036;-76
2022/08/25 04:38:33;;;;;;;12.43;6.57;;;;;;;19.42;65.48;101448.06;5057321;28;20021;-76
2022/08/25 04:41:02;;;;;;;8.13;5.65;;;;;;;19.39;65.59;101445.69;5054592;28;20060;-76
2022/08/25 04:43:29;;;;;;;7.50;6.40;;;;;;;19.41;65.25;101443.66;5058032;28;20083;-76
2022/08/25 04:45:54;;;;;;;9.10;5.95;;;;;;;19.43;64.33;101451.59;5056482;28;20025;-76
2022/08/25 04:48:21;;;;;;;9.10;5.85;;;;;;;19.39;64.81;101440.31;5058386;28;20028;-76
2022/08/25 04:50:46;;;;;;;14.10;6.50;;;;;;;19.46;64.16;101439.66;5054627;28;20368;-76
2022/08/25 04:53:12;;;;;;;12.23;6.63;;;;;;;19.45;64.56;101446.03;5058064;28;20063;-77
2022/08/25 04:55:47;;;;;;;9.15;5.70;;;;;;;19.45;63.75;101436.13;5062100;28;20223;-77
2022/08/25 04:58:14;;;;;;;13.02;6.55;;;;;;;19.45;63.82;101443.34;5063356;28;20029;-76
2022/08/25 05:00:40;;;;;;;8.05;5.85;;;;;;;19.46;63.93;101440.50;5062451;28;20029;-76
2022/08/25 05:03:05;;;;;;;10.25;5.32;;;;;;;19.48;63.67;101443.88;5060632;28;20365;-77
2022/08/25 05:05:34;;;;;;;9.32;5.57;;;;;;;19.48;64.12;101446.56;5060889;28;20032;-77
2022/08/25 05:08:00;;;;;;;9.15;5.55;;;;;;;19.47;64.48;101454.81;5062207;28;20029;-77
2022/08/25 05:10:25;;;;;;;7.63;5.22;;;;;;;19.44;64.08;101453.28;5051464;28;20032;-76
2022/08/25 05:12:51;;;;;;;12.40;5.55;;;;;;;19.44;65.17;101447.91;5061414;28;20029;-77
2022/08/25 05:18:00;;;;;;;9.45;5.25;;;;;;;19.46;63.73;101461.22;5050889;28;20036;-77
2022/08/25 05:20:26;;;;;;;7.95;5.00;;;;;;;19.48;64.41;101464.59;5059605;28;20033;-77
2022/08/25 05:22:51;;;;;;;8.98;5.45;;;;;;;19.51;63.03;101472.34;5060236;28;20100;-76
2022/08/25 05:25:17;;;;;;;10.55;5.25;;;;;;;19.51;63.63;101469.66;5053584;28;20371;-77
2022/08/25 05:27:43;;;;;;;15.02;5.40;;;;;;;19.54;63.08;101478.25;5058025;28;20044;-77
2022/08/25 05:30:10;;;;;;;11.35;5.20;;;;;;;19.60;62.73;101479.44;5061167;28;20029;-77
2022/08/25 05:32:36;;;;;;;12.32;5.35;;;;;;;19.64;62.86;101475.44;5063336;28;20029;-77
2022/08/25 05:35:05;;;;;;;8.75;4.60;;;;;;;19.69;62.74;101475.81;5064120;28;20052;-77
2022/08/25 05:37:34;;;;;;;10.02;4.82;;;;;;;19.75;62.55;101472.50;5061527;28;20044;-76
2022/08/25 05:39:59;;;;;;;8.55;4.38;;;;;;;19.81;62.43;101475.53;5061339;28;20099;-77
2022/08/25 05:42:27;;;;;;;11.50;4.65;;;;;;;19.86;63.06;101475.91;5060078;28;20017;-77
2022/08/25 05:44:54;;;;;;;7.45;4.45;;;;;;;19.91;62.43;101476.25;5062833;28;20067;-77
2022/08/25 05:47:19;;;;;;;8.27;4.68;;;;;;;19.96;62.83;101482.00;5062019;28;20049;-77
2022/08/25 05:49:47;;;;;;;11.23;4.25;;;;;;;20.01;62.95;101479.66;5062349;28;20125;-77
2022/08/25 05:52:13;;;;;;;9.00;3.92;;;;;;;20.07;61.24;101480.84;5061329;28;20128;-77
2022/08/25 05:54:41;;;;;;;5.65;4.20;;;;;;;20.13;61.05;101472.09;5059885;28;20098;-77
2022/08/25 05:57:08;;;;;;;8.38;4.63;;;;;;;20.19;60.08;101478.69;5055017;28;20041;-77
2022/08/25 05:59:33;;;;;;;10.05;4.40;;;;;;;20.25;59.51;101486.97;5049453;28;20108;-79
2022/08/25 06:04:42;;;;;;;7.95;4.68;;;;;;;20.35;59.88;101494.91;5052505;28;20557;-77
2022/08/25 06:07:08;;;;;;;10.97;3.90;;;;;;;20.39;59.26;101495.41;5061547;28;20033;-77
2022/08/25 06:09:36;;;;;;;7.25;4.13;;;;;;;20.44;59.00;101487.66;5060799;28;20630;-77
2022/08/25 06:12:02;;;;;;;10.30;4.17;;;;;;;20.52;58.65;101490.38;5046305;28;20037;-76
2022/08/25 06:14:27;;;;;;;7.00;3.55;;;;;;;20.56;59.36;101491.72;5061599;28;20298;-78
2022/08/25 06:16:53;;;;;;;8.57;4.25;;;;;;;20.63;58.08;101482.00;5050799;28;20033;-75
2022/08/25 06:19:18;;;;;;;11.75;4.03;;;;;;;20.70;58.47;101488.38;5053391;28;20390;-75
2022/08/25 06:21:43;;;;;;;7.50;4.25;;;;;;;20.78;57.47;101484.81;5053133;28;20024;-74
2022/08/25 06:24:09;;;;;;;8.90;4.03;;;;;;;20.86;57.18;101484.00;5053172;28;20372;-75
2022/08/25 06:26:35;;;;;;;11.00;4.20;;;;;;;20.93;57.50;101482.28;5054138;28;20275;-75
2022/08/25 06:29:02;;;;;;;8.90;4.10;;;;;;;20.99;56.75;101480.78;5053828;28;20029;-75
2022/08/25 06:31:27;;;;;;;9.10;3.90;;;;;;;21.07;56.49;101488.88;5045623;28;20032;-75
2022/08/25 06:33:52;;;;;;;13.57;4.07;;;;;;;21.14;56.21;101484.47;5053756;28;20062;-74
2022/08/25 06:36:18;;;;;;;8.38;4.10;;;;;;;21.20;55.07;101488.31;5053932;28;20049;-74
2022/08/25 06:38:45;;;;;;;14.40;4.25;;;;;;;21.28;55.04;101482.06;5052305;28;20063;-75
2022/08/25 06:41:11;;;;;;;8.07;4.00;;;;;;;21.38;54.53;101485.41;5053773;28;20502;-74
2022/08/25 06:43:37;;;;;;;6.90;3.83;;;;;;;21.47;54.52;101488.94;5053982;28;20468;-75
2022/08/25 06:46:15;;;;;;;13.20;4.18;;;;;;;21.53;55.14;101491.84;5054191;28;20045;-75
2022/08/25 06:48:42;;;;;;;7.07;3.40;;;;;;;21.61;55.27;101488.25;5041341;28;20029;-75
2022/08/25 06:51:10;;;;;;;10.20;3.85;;;;;;;21.64;53.70;101487.91;5053230;28;20047;-75
2022/08/25 06:53:36;;;;;;;8.85;3.70;;;;;;;21.80;53.24;101498.66;5053877;28;20060;-75
2022/08/25 06:56:02;;;;;;;11.63;3.90;;;;;;;21.93;53.89;101487.28;5055439;28;20072;-77
2022/08/25 06:58:27;;;;;;;12.05;3.85;;;;;;;22.07;52.33;101492.97;5048028;28;20025;-77
2022/08/25 07:00:53;;;;;;;11.73;3.70;;;;;;;22.18;52.12;101482.56;5052671;28;20104;-76
2022/08/25 07:03:18;;;;;;;8.15;3.35;;;;;;;22.35;52.18;101483.34;5054561;28;20036;-77
2022/08/25 07:05:55;;;;;;;10.25;4.75;;;;;;;22.48;52.53;101482.75;5034243;28;20456;-77
2022/08/25 07:08:21;;;;;;;7.35;3.78;;;;;;;22.69;51.83;101471.22;5034802;28;20033;-77
2022/08/25 07:10:47;;;;;;;4.30;3.40;;;;;;;22.84;51.65;101473.97;5054430;28;20025;-77
2022/08/25 07:13:12;;;;;;;12.65;4.53;;;;;;;23.00;50.50;101467.56;5054101;28;20032;-76
2022/08/25 07:15:38;;;;;;;10.98;4.75;;;;;;;23.16;50.49;101469.28;5054062;28;20098;-78
2022/08/25 07:18:04;;;;;;;7.75;4.10;;;;;;;23.27;49.99;101463.41;5054106;28;20467;-77
2022/08/25 07:20:30;;;;;;;9.00;3.70;;;;;;;23.39;49.48;101466.50;5054229;28;20071;-77
2022/08/25 07:22:56;;;;;;;13.93;4.00;;;;;;;23.58;48.85;101470.50;5054654;28;20567;-76
2022/08/25 07:25:21;;;;;;;10.77;4.00;;;;;;;23.79;48.58;101458.03;5054045;28;20071;-77
2022/08/25 07:27:46;;;;;;;11.70;3.85;;;;;;;23.96;47.93;101462.22;5043591;28;20822;-77
2022/08/25 07:30:12;;;;;;;9.65;4.35;;;;;;;24.26;47.09;101469.44;5053478;28;20025;-78
2022/08/25 07:32:37;;;;;;;9.10;3.78;;;;;;;24.43;47.51;101459.16;5053988;28;20079;-78
2022/08/25 07:35:14;;;;;;;14.23;3.40;;;;;;;24.58;47.15;101459.97;5037080;28;20067;-78
2022/08/25 07:37:45;;;;;;;11.20;3.53;;;;;;;24.89;46.78;101458.75;5047909;28;20307;-76
2022/08/25 07:40:26;;;;;;;11.95;3.95;;;;;;;25.11;46.84;101459.53;5054046;28;20108;-77
2022/08/25 07:42:55;;;;;;;10.70;3.55;;;;;;;25.22;45.41;101445.38;5053676;28;20052;-77
2022/08/25 07:45:29;;;;;;;10.32;3.78;;;;;;;25.52;44.89;101460.66;5053657;28;20021;-77
2022/08/25 07:47:56;;;;;;;10.23;3.47;;;;;;;25.77;45.77;101464.50;5053779;28;20420;-77
2022/08/25 07:50:28;;;;;;;7.22;3.35;;;;;;;25.93;44.76;101460.59;5053922;28;20037;-77
2022/08/25 07:52:55;;;;;;;8.45;2.90;;;;;;;26.16;43.45;101462.16;5053088;28;20369;-76
2022/08/25 07:55:25;;;;;;;12.23;3.00;;;;;;;26.30;43.34;101449.41;5052488;28;20048;-77
2022/08/25 07:57:51;;;;;;;10.55;3.22;;;;;;;26.53;43.52;101449.84;5056237;28;20090;-79
2022/08/25 08:00:17;;;;;;;7.45;2.92;;;;;;;26.64;41.96;101459.31;5057183;28;20049;-78
2022/08/25 08:02:43;;;;;;;8.95;3.53;;;;;;;26.79;40.88;101453.63;5044667;28;20029;-79
2022/08/25 08:05:11;;;;;;;6.15;3.13;;;;;;;27.08;41.65;101451.50;5047708;28;20155;-78
2022/08/25 08:07:37;;;;;;;9.23;2.97;;;;;;;27.32;40.31;101450.84;5043701;28;20415;-78
2022/08/25 08:10:04;;;;;;;10.70;3.17;;;;;;;27.43;40.43;101448.50;5054145;28;20028;-78
2022/08/25 08:12:29;;;;;;;10.02;3.08;;;;;;;27.66;39.36;101450.72;5053679;28;20537;-79
2022/08/25 08:14:55;;;;;;;5.00;3.03;;;;;;;27.74;39.07;101442.28;5053726;28;20045;-80
2022/08/25 08:17:20;;;;;;;9.27;2.90;;;;;;;27.89;39.58;101439.28;5053293;28;20036;-79
2022/08/25 08:19:46;;;;;;;6.65;2.70;;;;;;;28.13;39.41;101443.19;5052210;28;20104;-79
2022/08/25 08:22:15;;;;;;;5.35;2.67;;;;;;;28.36;40.21;101439.88;5053945;28;20032;-79
2022/08/25 08:24:44;;;;;;;8.13;2.92;;;;;;;28.64;38.08;101448.72;5053431;28;20036;-79
2022/08/25 08:27:11;;;;;;;10.50;2.90;;;;;;;28.84;38.20;101449.34;5052952;28;20033;-78
2022/08/25 08:29:37;;;;;;;8.02;3.08;;;;;;;28.98;37.21;101450.91;5052161;28;20021;-79
2022/08/25 08:32:04;;;;;;;9.80;2.70;;;;;;;29.19;36.81;101453.47;5053475;28;20094;-78
2022/08/25 08:34:30;;;;;;;13.68;3.17;;;;;;;29.37;36.48;101441.69;5056456;28;20036;-76
2022/08/25 08:36:56;;;;;;;5.00;2.60;;;;;;;29.60;36.86;101441.81;5064173;28;20032;-78
2022/08/25 08:39:22;;;;;;;6.20;2.47;;;;;;;29.76;36.07;101440.38;5062601;28;20162;-77
2022/08/25 08:42:18;;;;;;;8.05;2.65;;;;;;;30.00;36.26;101440.47;5043775;28;20041;-78
2022/08/25 08:44:43;;;;;;;4.85;2.45;;;;;;;30.11;34.88;101436.09;5060836;28;20025;-77
2022/08/25 08:47:36;;;;;;;8.53;2.90;;;;;;;30.33;36.53;101439.97;5058558;28;20364;-76
2022/08/25 08:50:15;;;;;;;7.47;2.78;;;;;;;30.34;35.98;101441.63;5051870;28;20017;-77
2022/08/25 08:53:06;;;;;;;13.13;3.00;;;;;;;30.61;35.64;101436.59;5054423;28;20049;-78
2022/08/25 08:55:31;;;;;;;8.70;2.65;;;;;;;30.86;33.76;101434.69;5046846;28;20040;-79
2022/08/25 08:58:00;;;;;;;7.10;2.70;;;;;;;31.03;34.25;101446.63;5052225;28;20079;-78
2022/08/25 09:00:27;;;;;;;5.53;2.63;;;;;;;31.31;32.71;101434.91;5052953;28;20452;-77
2022/08/25 09:03:10;;;;;;;5.20;2.90;;;;;;;31.50;32.58;101432.81;5053428;28;20040;-79
2022/08/25 09:05:49;;;;;;;6.55;2.60;;;;;;;31.73;32.71;101434.69;5053969;28;20029;-77
2022/08/25 09:08:16;;;;;;;6.57;2.60;;;;;;;31.84;31.46;101438.47;5050943;28;20060;-78
2022/08/25 09:10:50;;;;;;;8.63;2.83;;;;;;;32.03;31.77;101433.59;5053202;28;20028;-78
2022/08/25 09:13:37;;;;;;;5.90;2.47;;;;;;;32.30;32.20;101432.16;5054057;28;20044;-78
2022/08/25 09:19:30;;;;;;;7.68;2.58;;;;;;;32.59;32.42;101428.25;5056867;28;20098;-79
2022/08/25 09:22:22;;;;;;;7.07;2.58;;;;;;;32.85;31.01;101419.56;5057815;28;20021;-79
2022/08/25 09:25:06;;;;;;;8.55;2.25;;;;;;;33.09;30.29;101428.41;5055438;28;20033;-79
2022/08/25 09:27:45;;;;;;;4.82;2.35;;;;;;;33.24;29.52;101428.63;5042929;28;20626;-78
2022/08/25 09:30:14;;;;;;;7.70;2.22;;;;;;;33.29;29.99;101431.50;5036833;28;20541;-78
2022/08/25 09:32:44;;;;;;;11.93;2.33;;;;;;;33.47;29.62;101429.47;5043627;28;20040;-79
2022/08/25 09:35:18;;;;;;;5.10;2.30;;;;;;;33.55;28.39;101423.50;5057777;28;20507;-78
2022/08/25 09:37:58;;;;;;;6.45;2.20;;;;;;;33.77;30.06;101423.50;5057551;28;20069;-79
2022/08/25 09:40:26;;;;;;;11.93;2.10;;;;;;;33.86;27.01;101421.97;5058354;28;20434;-78
2022/08/25 09:42:54;;;;;;;7.37;2.33;;;;;;;34.04;28.34;101426.28;5059763;28;20505;-79
2022/08/25 09:45:43;;;;;;;5.28;2.10;;;;;;;34.27;28.78;101419.63;5058529;28;20025;-79
2022/08/25 09:48:27;;;;;;;7.20;2.53;;;;;;;34.45;28.35;101415.59;5059770;28;20025;-79
2022/08/25 09:50:59;;;;;;;6.22;2.03;;;;;;;34.51;26.14;101410.97;5044486;28;20112;-79
2022/08/25 09:53:25;;;;;;;4.40;2.10;;;;;;;34.93;24.37;101409.31;5058174;28;20044;-79
2022/08/25 09:56:11;;;;;;;4.20;2.13;;;;;;;35.22;27.69;101401.44;5058825;28;20094;-79
2022/08/25 09:58:36;;;;;;;6.88;2.13;;;;;;;35.18;25.61;101398.38;5058830;28;20104;-79
2022/08/25 10:01:15;;;;;;;6.73;2.20;;;;;;;35.29;27.13;101399.31;5058181;28;20068;-79
2022/08/25 10:04:04;;;;;;;3.85;2.00;;;;;;;35.54;26.59;101386.66;5062358;28;20275;-79
2022/08/25 10:06:41;;;;;;;4.22;1.83;;;;;;;35.75;24.36;101382.03;5055792;28;20036;-78
2022/08/25 10:09:21;;;;;;;3.22;1.58;;;;;;;35.97;25.21;101381.78;5057384;28;20412;-80
2022/08/25 10:11:51;;;;;;;3.05;1.80;;;;;;;36.13;24.08;101377.09;5064811;28;20040;-79
2022/08/25 10:14:22;;;;;;;2.97;1.70;;;;;;;36.16;23.82;101373.78;5061316;28;20025;-79
2022/08/25 10:16:48;;;;;;;3.25;1.65;;;;;;;36.42;22.15;101376.53;5056526;28;20052;-79
2022/08/25 10:19:26;;;;;;;4.57;1.90;;;;;;;36.52;23.13;101378.44;5059297;28;20867;-79
2022/08/25 10:22:20;;;;;;;5.40;1.67;;;;;;;36.66;23.24;101372.06;5059075;28;20051;-79
2022/08/25 10:24:47;;;;;;;5.25;1.90;;;;;;;36.53;22.21;101363.50;5058040;28;20082;-79
2022/08/25 10:27:32;;;;;;;2.22;1.80;;;;;;;36.65;24.57;101359.31;5048907;28;20033;-78
2022/08/25 10:30:19;;;;;;;4.50;1.83;;;;;;;36.07;23.55;101358.81;5050110;28;20041;-79
2022/08/25 10:33:02;;;;;;;2.78;1.48;;;;;;;36.01;23.15;101355.25;5052403;28;20029;-79
2022/08/25 10:35:59;;;;;;;3.38;1.58;;;;;;;36.20;23.44;101349.97;5045524;28;20465;-79
2022/08/25 10:38:34;;;;;;;3.58;1.60;;;;;;;36.04;22.23;101337.25;5057453;28;20036;-79
2022/08/25 10:41:27;;;;;;;2.47;1.52;;;;;;;35.86;22.68;101335.91;5049357;28;20542;-79
2022/08/25 10:45:41;;;;;;;3.55;1.58;;;;;;;35.83;22.11;101326.22;5055260;28;20471;-79
2022/08/25 10:47:30;;;;;;;2.33;1.60;;;;;;;35.92;23.46;101332.00;5047888;28;20044;-79
2022/08/25 10:50:23;;;;;;;3.75;1.65;;;;;;;35.82;23.83;101323.72;5056156;28;20034;-79
2022/08/25 10:53:00;;;;;;;3.65;1.50;;;;;;;35.80;22.30;101323.19;5033191;28;20056;-80
2022/08/25 10:55:36;;;;;;;3.67;1.80;;;;;;;35.75;22.49;101318.47;5056564;28;20057;-80
2022/08/25 10:58:24;;;;;;;4.22;1.63;;;;;;;35.78;23.47;101323.44;5046370;28;20037;-79
2022/08/25 11:01:00;;;;;;;2.58;1.50;;;;;;;35.83;23.63;101326.22;5056048;28;20041;-79
2022/08/25 11:03:31;;;;;;;6.28;1.98;;;;;;;36.04;23.60;101317.91;5055873;28;20033;-79
2022/08/25 11:06:28;;;;;;;7.60;2.13;;;;;;;36.06;24.09;101313.75;5055438;28;20119;-79
2022/08/25 11:08:59;;;;;;;6.38;1.98;;;;;;;36.26;23.73;101314.88;5049051;28;20045;-79
2022/08/25 11:11:42;;;;;;;3.50;2.05;;;;;;;36.45;24.20;101309.56;5057925;28;20041;-79
2022/08/25 11:14:11;;;;;;;3.22;1.88;;;;;;;36.73;24.27;101312.84;5057085;28;20088;-79
2022/08/25 11:16:47;;;;;;;6.68;2.10;;;;;;;36.86;23.85;101309.47;5056314;28;20048;-79
2022/08/25 11:19:26;;;;;;;4.20;1.90;;;;;;;36.83;23.60;101308.06;5060434;28;20503;-79
2022/08/25 11:22:03;;;;;;;4.00;1.85;;;;;;;36.99;23.50;101302.47;5056958;28;20048;-79
2022/08/25 11:24:52;;;;;;;8.00;1.87;;;;;;;37.25;22.14;101292.09;5058379;28;20048;-80
2022/08/25 11:27:22;;;;;;;6.00;1.75;;;;;;;37.40;22.67;101289.22;5057287;28;20052;-78
2022/08/25 11:29:57;;;;;;;3.33;1.60;;;;;;;37.54;23.45;101294.94;5055715;28;20086;-77
2022/08/25 11:32:24;;;;;;;6.68;2.13;;;;;;;37.54;21.52;101297.72;5049413;28;20045;-77
2022/08/25 11:34:51;;;;;;;4.53;1.83;;;;;;;37.68;21.21;101286.81;5052033;28;20075;-77
2022/08/25 11:37:25;;;;;;;6.93;1.77;;;;;;;37.70;21.93;101297.63;5055543;28;20063;-77
2022/08/25 11:40:06;;;;;;;6.50;2.08;;;;;;;37.77;21.92;101287.03;5054050;28;20036;-76
2022/08/25 11:42:46;;;;;;;5.35;2.30;;;;;;;37.80;21.24;101288.41;5056076;28;20065;-77
2022/08/25 11:45:11;;;;;;;4.40;1.73;;;;;;;37.87;20.45;101294.41;5052607;28;20041;-77
2022/08/25 11:47:49;;;;;;;6.37;2.00;;;;;;;37.82;20.34;101288.94;5057459;28;20068;-76